Time;durP1;ratioP1;P1;durP2;ratioP2;P2;SDS_P1;SDS_P2;PMS_P1;PMS_P2;Temp;Humidity;BMP_temperature;BMP_pressure;BME280_temperature;BME280_humidity;BME280_pressure;Samples;Min_cycle;Max_cycle;Signal;HPM_P1;HPM_P2
2022/07/29 00:01:17;;;;;;;10.85;6.00;;;20.40;54.90;;;;;;5015813;28;20053;-72
2022/07/29 00:03:43;;;;;;;10.23;5.63;;;20.50;55.00;;;;;;5033194;28;20136;-72
2022/07/29 00:06:10;;;;;;;9.82;5.93;;;20.40;54.90;;;;;;5033543;28;20475;-72
2022/07/29 00:08:37;;;;;;;9.25;5.32;;;20.40;54.90;;;;;;5015720;28;20059;-72
2022/07/29 00:11:03;;;;;;;8.18;5.20;;;20.60;60.30;;;;;;5033512;28;20053;-72
2022/07/29 00:13:30;;;;;;;9.23;5.30;;;20.50;55.00;;;;;;5015596;28;20075;-71
2022/07/29 00:15:58;;;;;;;10.65;5.30;;;20.40;55.00;;;;;;5015934;28;20140;-71
2022/07/29 00:18:25;;;;;;;11.73;5.97;;;21.20;59.90;;;;;;5015821;28;20420;-72
2022/07/29 00:20:52;;;;;;;11.35;6.32;;;20.60;59.40;;;;;;5015245;28;20084;-72
2022/07/29 00:23:18;;;;;;;10.45;5.57;;;20.40;55.00;;;;;;5015182;28;20422;-72
2022/07/29 00:25:45;;;;;;;10.20;5.68;;;20.40;55.00;;;;;;5015686;28;20136;-71
2022/07/29 00:28:12;;;;;;;11.88;5.80;;;20.40;55.00;;;;;;5015571;28;20406;-71
2022/07/29 00:30:39;;;;;;;9.57;5.22;;;20.40;55.00;;;;;;5015296;28;20049;-71
2022/07/29 00:33:07;;;;;;;10.25;5.82;;;21.00;60.10;;;;;;5015424;28;20077;-72
2022/07/29 00:35:45;;;;;;;9.52;5.72;;;20.60;59.50;;;;;;5015240;28;20136;-72
2022/07/29 00:38:13;;;;;;;14.02;5.93;;;20.40;55.00;;;;;;5015481;28;20512;-72
2022/07/29 00:40:39;;;;;;;10.52;5.45;;;20.40;55.10;;;;;;5015116;28;20053;-72
2022/07/29 00:43:06;;;;;;;9.20;5.18;;;20.50;59.50;;;;;;5014933;28;20489;-71
2022/07/29 00:45:33;;;;;;;8.38;4.75;;;20.40;55.00;;;;;;5033069;28;20049;-72
2022/07/29 00:48:00;;;;;;;10.93;6.13;;;20.60;55.20;;;;;;5032983;28;20086;-72
2022/07/29 00:50:28;;;;;;;9.70;5.47;;;21.00;58.90;;;;;;5014405;28;20477;-72
2022/07/29 00:52:55;;;;;;;8.63;5.10;;;20.40;60.30;;;;;;5032503;28;20061;-72
2022/07/29 00:55:21;;;;;;;11.23;4.97;;;20.40;55.00;;;;;;5032579;28;20168;-72
2022/07/29 00:57:48;;;;;;;11.25;5.78;;;20.40;55.00;;;;;;5032680;28;20537;-72
2022/07/29 01:00:17;;;;;;;13.63;6.43;;;20.70;58.40;;;;;;5014815;28;20068;-72
2022/07/29 01:02:43;;;;;;;14.65;7.20;;;20.30;55.00;;;;;;5014621;28;20057;-72
2022/07/29 01:05:10;;;;;;;13.88;7.15;;;20.30;55.00;;;;;;5014684;28;20132;-72
2022/07/29 01:07:38;;;;;;;9.88;5.70;;;20.20;58.90;;;;;;5013951;28;20133;-72
2022/07/29 01:10:06;;;;;;;12.48;5.82;;;20.40;59.60;;;;;;5032209;28;20510;-72
2022/07/29 01:12:33;;;;;;;12.23;6.28;;;20.30;55.00;;;;;;5014769;28;20046;-72
2022/07/29 01:15:00;;;;;;;11.70;5.63;;;20.30;55.00;;;;;;5032281;28;20055;-72
2022/07/29 01:17:27;;;;;;;11.20;6.40;;;20.30;55.00;;;;;;5032499;28;20088;-72
2022/07/29 01:19:59;;;;;;;13.48;5.43;;;20.30;55.00;;;;;;5014755;28;20132;-72
2022/07/29 01:22:53;;;;;;;11.63;6.05;;;20.30;55.00;;;;;;5030714;28;20050;-72
2022/07/29 01:25:41;;;;;;;11.65;5.53;;;20.30;55.00;;;;;;5032307;28;20059;-72
2022/07/29 01:28:35;;;;;;;10.77;5.50;;;20.30;55.00;;;;;;5014661;28;20057;-72
2022/07/29 01:31:04;;;;;;;10.13;5.78;;;20.30;55.00;;;;;;5032096;28;20045;-71
2022/07/29 01:33:49;;;;;;;11.55;5.70;;;20.30;55.00;;;;;;5014177;28;20060;-72
2022/07/29 01:36:18;;;;;;;10.23;5.32;;;20.20;55.00;;;;;;5031924;28;20053;-71
2022/07/29 01:38:46;;;;;;;10.35;5.10;;;20.30;55.10;;;;;;5014518;28;20057;-72
2022/07/29 01:41:15;;;;;;;9.80;5.22;;;20.30;55.00;;;;;;5014455;28;20141;-71
2022/07/29 01:43:45;;;;;;;10.43;5.35;;;20.20;55.00;;;;;;5013949;28;20112;-72
2022/07/29 01:46:15;;;;;;;9.85;5.63;;;20.30;55.00;;;;;;5013834;28;20057;-72
2022/07/29 01:48:46;;;;;;;11.90;5.97;;;21.10;60.10;;;;;;5014493;28;20133;-72
2022/07/29 01:51:14;;;;;;;10.63;5.75;;;20.40;60.70;;;;;;5014281;28;20057;-72
2022/07/29 01:53:44;;;;;;;11.05;6.05;;;20.20;60.40;;;;;;5031332;28;20408;-72
2022/07/29 01:56:11;;;;;;;11.45;5.70;;;20.30;55.10;;;;;;5032112;28;20049;-72
2022/07/29 01:58:39;;;;;;;12.60;5.65;;;20.30;55.10;;;;;;5014272;28;20058;-72
2022/07/29 02:01:06;;;;;;;13.45;5.80;;;20.30;55.10;;;;;;5013991;28;20057;-72
2022/07/29 02:03:34;;;;;;;10.63;5.00;;;20.30;59.30;;;;;;5013800;28;20064;-72
2022/07/29 02:06:01;;;;;;;10.93;5.45;;;20.00;59.60;;;;;;5013786;28;20057;-72
2022/07/29 02:08:27;;;;;;;11.02;5.10;;;20.20;55.00;;;;;;5014264;28;20056;-72
2022/07/29 02:10:54;;;;;;;8.85;5.10;;;20.00;60.10;;;;;;5014127;28;20417;-72
2022/07/29 02:13:21;;;;;;;10.88;5.07;;;20.10;59.00;;;;;;5013557;28;20053;-72
2022/07/29 02:15:47;;;;;;;9.32;5.00;;;19.60;59.90;;;;;;5013720;28;20140;-72
2022/07/29 02:18:16;;;;;;;11.48;5.57;;;20.20;55.00;;;;;;5014140;28;20136;-72
2022/07/29 02:20:46;;;;;;;12.68;5.18;;;20.30;55.10;;;;;;5017981;28;20490;-72
2022/07/29 02:23:14;;;;;;;11.43;5.22;;;20.20;55.00;;;;;;5017682;28;20128;-72
2022/07/29 02:25:41;;;;;;;10.90;5.20;;;20.20;55.00;;;;;;5017575;28;20140;-72
2022/07/29 02:28:08;;;;;;;8.80;4.90;;;20.20;55.00;;;;;;5017956;28;20053;-72
2022/07/29 02:30:35;;;;;;;10.40;4.80;;;20.20;55.00;;;;;;5035090;28;20405;-72
2022/07/29 02:33:02;;;;;;;9.15;4.65;;;20.20;55.00;;;;;;5017711;28;20131;-72
2022/07/29 02:35:29;;;;;;;11.25;5.25;;;20.20;55.00;;;;;;5017813;28;20071;-72
2022/07/29 02:40:41;;;;;;;10.98;4.93;;;20.20;60.30;;;;;;5035086;28;20057;-72
2022/07/29 02:43:08;;;;;;;12.23;4.88;;;21.10;60.10;;;;;;5017377;28;20075;-72
2022/07/29 02:45:35;;;;;;;9.35;4.78;;;20.20;55.00;;;;;;5034785;28;20624;-72
2022/07/29 02:48:03;;;;;;;8.95;4.50;;;20.10;55.00;;;;;;5017641;28;20053;-72
2022/07/29 02:50:32;;;;;;;7.97;4.47;;;20.40;58.70;;;;;;5017342;28;20140;-72
2022/07/29 02:53:03;;;;;;;7.65;4.20;;;20.20;55.00;;;;;;5034633;28;20053;-72
2022/07/29 02:55:32;;;;;;;9.48;4.50;;;20.20;55.00;;;;;;5017580;28;20067;-72
2022/07/29 02:58:02;;;;;;;8.60;4.55;;;20.20;55.00;;;;;;5017417;28;20462;-72
2022/07/29 03:00:29;;;;;;;10.27;4.57;;;19.50;58.20;;;;;;5016973;28;20533;-72
2022/07/29 03:02:57;;;;;;;10.15;4.28;;;20.10;55.00;;;;;;5016835;28;20056;-72
2022/07/29 03:05:24;;;;;;;9.13;4.35;;;20.20;55.00;;;;;;5034882;28;20467;-72
2022/07/29 03:07:53;;;;;;;8.70;4.28;;;19.90;59.80;;;;;;5017200;28;20053;-72
2022/07/29 03:10:22;;;;;;;8.82;4.32;;;20.90;58.80;;;;;;5017072;28;20133;-72
2022/07/29 03:12:48;;;;;;;10.13;4.60;;;20.10;55.00;;;;;;5016764;28;20132;-72
2022/07/29 03:15:15;;;;;;;8.10;4.35;;;20.10;55.00;;;;;;5016690;28;20053;-72
2022/07/29 03:17:42;;;;;;;9.13;4.10;;;20.10;55.00;;;;;;5016985;28;20053;-72
2022/07/29 03:20:10;;;;;;;9.43;4.07;;;21.00;60.20;;;;;;5017077;28;20103;-72
2022/07/29 03:22:43;;;;;;;9.95;4.63;;;19.90;59.70;;;;;;5016768;28;20058;-72
2022/07/29 03:25:10;;;;;;;11.05;4.90;;;20.20;60.70;;;;;;5034210;28;20409;-72
2022/07/29 03:27:38;;;;;;;9.57;4.60;;;20.10;55.00;;;;;;5016780;28;20057;-72
2022/07/29 03:30:06;;;;;;;9.20;4.20;;;19.90;60.40;;;;;;5012578;28;20439;-72
2022/07/29 03:32:32;;;;;;;8.05;4.40;;;20.10;55.00;;;;;;4996775;28;20133;-72
2022/07/29 03:34:59;;;;;;;7.57;4.05;;;20.10;55.00;;;;;;4996847;28;20049;-72
2022/07/29 03:37:26;;;;;;;7.40;3.83;;;20.10;60.20;;;;;;4996812;28;20128;-72
2022/07/29 03:39:53;;;;;;;10.13;4.00;;;19.20;59.10;;;;;;4996985;28;20569;-72
2022/07/29 03:42:20;;;;;;;7.68;4.18;;;20.00;59.90;;;;;;4996842;28;20057;-72
2022/07/29 03:44:49;;;;;;;8.88;4.40;;;20.10;55.00;;;;;;5007234;28;20136;-72
2022/07/29 03:47:17;;;;;;;8.70;4.15;;;20.10;59.50;;;;;;5016529;28;20053;-72
2022/07/29 03:49:44;;;;;;;8.68;4.18;;;20.10;55.10;;;;;;5016401;28;20136;-72
2022/07/29 03:52:10;;;;;;;9.20;4.20;;;20.10;55.10;;;;;;5015938;28;20053;-72
2022/07/29 03:54:37;;;;;;;8.48;4.35;;;20.10;55.10;;;;;;5016251;28;20060;-72
2022/07/29 03:57:04;;;;;;;8.80;4.00;;;20.00;59.30;;;;;;5016143;28;20057;-72
2022/07/29 03:59:31;;;;;;;8.93;4.40;;;20.00;55.10;;;;;;5015912;28;20061;-72
2022/07/29 04:01:59;;;;;;;6.53;3.88;;;20.00;55.10;;;;;;5016109;28;20053;-72
2022/07/29 04:04:26;;;;;;;6.70;3.55;;;20.00;55.10;;;;;;5015748;28;20059;-72
2022/07/29 04:06:52;;;;;;;7.28;3.72;;;20.00;55.10;;;;;;5015865;28;20073;-72
2022/07/29 04:09:19;;;;;;;7.57;3.80;;;18.70;54.40;;;;;;5015849;28;20132;-72
2022/07/29 04:11:46;;;;;;;8.25;3.75;;;20.00;55.20;;;;;;5033476;28;20053;-72
2022/07/29 04:14:13;;;;;;;9.20;4.30;;;20.00;60.00;;;;;;5033020;28;20068;-72
2022/07/29 04:16:39;;;;;;;7.65;3.75;;;20.00;55.20;;;;;;5033295;28;20561;-72
2022/07/29 04:19:07;;;;;;;8.10;3.97;;;20.00;55.20;;;;;;5015657;28;20056;-72
2022/07/29 04:21:38;;;;;;;7.63;4.07;;;20.00;55.20;;;;;;5033276;28;20041;-72
2022/07/29 04:24:05;;;;;;;6.28;3.47;;;20.00;55.10;;;;;;5032848;28;20576;-72
2022/07/29 04:26:32;;;;;;;8.38;4.22;;;20.00;55.20;;;;;;5015498;28;20053;-72
2022/07/29 04:28:58;;;;;;;8.15;4.22;;;20.00;55.20;;;;;;5015357;28;20542;-72
2022/07/29 04:31:25;;;;;;;7.30;3.90;;;19.90;60.10;;;;;;5033272;28;20063;-72
2022/07/29 04:33:52;;;;;;;9.65;4.18;;;20.00;60.60;;;;;;5014911;28;20179;-72
2022/07/29 04:36:20;;;;;;;8.02;4.35;;;20.00;55.20;;;;;;5015090;28;20053;-72
2022/07/29 04:38:47;;;;;;;8.77;4.10;;;20.00;55.80;;;;;;5015191;28;20056;-72
2022/07/29 04:41:13;;;;;;;7.45;3.95;;;19.90;60.00;;;;;;5015010;28;20061;-72
2022/07/29 04:43:40;;;;;;;7.50;4.05;;;20.00;55.10;;;;;;5031003;28;20413;-72
2022/07/29 04:46:07;;;;;;;5.90;3.15;;;20.00;55.10;;;;;;5014998;28;20049;-72
2022/07/29 04:48:34;;;;;;;9.07;3.80;;;19.30;59.40;;;;;;5032448;28;20052;-72
2022/07/29 04:51:00;;;;;;;6.38;3.90;;;20.00;55.10;;;;;;5014485;28;20134;-72
2022/07/29 04:53:28;;;;;;;8.20;3.78;;;20.00;55.10;;;;;;5032681;28;20041;-72
2022/07/29 04:55:55;;;;;;;8.02;4.10;;;20.00;55.10;;;;;;5015033;28;20057;-72
2022/07/29 04:58:23;;;;;;;7.25;3.70;;;19.70;59.70;;;;;;5014197;28;20421;-72
2022/07/29 05:00:50;;;;;;;6.22;3.38;;;20.00;55.10;;;;;;5032309;28;20053;-72
2022/07/29 05:03:17;;;;;;;7.10;3.42;;;20.00;55.10;;;;;;5014640;28;20405;-72
2022/07/29 05:05:43;;;;;;;7.68;3.80;;;20.00;55.10;;;;;;5032314;28;20545;-72
2022/07/29 05:08:10;;;;;;;7.45;3.22;;;20.00;55.00;;;;;;5032369;28;20049;-71
2022/07/29 05:10:38;;;;;;;6.22;3.20;;;20.00;55.00;;;;;;5031731;28;20045;-71
2022/07/29 05:13:06;;;;;;;7.63;3.97;;;20.00;55.00;;;;;;5013484;28;20047;-71
2022/07/29 05:15:33;;;;;;;6.93;3.55;;;20.10;60.40;;;;;;5014328;28;20060;-71
2022/07/29 05:18:00;;;;;;;6.03;3.03;;;20.00;55.00;;;;;;5014004;28;20049;-71
2022/07/29 05:20:28;;;;;;;4.88;3.00;;;19.20;58.40;;;;;;5031710;28;20042;-71
2022/07/29 05:22:55;;;;;;;6.00;3.28;;;20.00;55.00;;;;;;5013726;28;20088;-72
2022/07/29 05:25:22;;;;;;;6.28;3.05;;;20.00;55.00;;;;;;5011939;28;20064;-75
2022/07/29 05:27:50;;;;;;;7.35;3.40;;;20.00;55.00;;;;;;5014255;28;20057;-72
2022/07/29 05:30:17;;;;;;;5.57;2.88;;;20.40;58.60;;;;;;5014228;28;20049;-73
2022/07/29 05:32:43;;;;;;;5.05;3.00;;;20.00;55.60;;;;;;5014477;28;20634;-73
2022/07/29 05:35:11;;;;;;;5.47;2.90;;;20.00;54.90;;;;;;5013994;28;20050;-72
2022/07/29 05:37:38;;;;;;;4.90;2.70;;;19.00;59.40;;;;;;5014192;28;20136;-72
2022/07/29 05:40:05;;;;;;;4.95;3.00;;;20.10;55.00;;;;;;5013902;28;20152;-72
2022/07/29 05:42:32;;;;;;;6.38;3.00;;;20.10;55.00;;;;;;5028710;28;20132;-72
2022/07/29 05:45:00;;;;;;;6.53;3.40;;;20.10;55.00;;;;;;5013713;28;20413;-72
2022/07/29 05:47:27;;;;;;;8.88;3.28;;;20.10;55.00;;;;;;5013447;28;20064;-72
2022/07/29 05:49:54;;;;;;;6.85;3.10;;;20.00;60.80;;;;;;5031241;28;20076;-72
2022/07/29 05:52:20;;;;;;;4.65;2.90;;;20.00;55.00;;;;;;5011867;28;20071;-72
2022/07/29 05:54:47;;;;;;;6.30;3.10;;;20.10;55.00;;;;;;5030959;28;20042;-72
2022/07/29 05:57:16;;;;;;;4.55;2.78;;;20.10;55.00;;;;;;5013346;28;20081;-72
2022/07/29 05:59:43;;;;;;;5.40;3.22;;;20.10;55.00;;;;;;5013666;28;20100;-73
2022/07/29 06:02:11;;;;;;;4.88;2.72;;;20.10;59.80;;;;;;5013853;28;20085;-72
2022/07/29 06:04:38;;;;;;;7.25;2.85;;;20.10;55.00;;;;;;5028137;28;20459;-71
2022/07/29 06:07:05;;;;;;;4.05;2.42;;;20.10;55.10;;;;;;5030975;28;21098;-72
2022/07/29 06:09:31;;;;;;;7.45;2.50;;;20.20;55.20;;;;;;5030775;28;20497;-71
2022/07/29 06:11:58;;;;;;;5.63;2.85;;;19.90;59.70;;;;;;5013365;28;20053;-71
2022/07/29 06:14:25;;;;;;;9.23;2.80;;;20.00;55.10;;;;;;5028591;28;20108;-72
2022/07/29 06:16:52;;;;;;;4.82;2.60;;;20.00;55.10;;;;;;5012729;28;20061;-71
2022/07/29 06:19:20;;;;;;;6.03;2.47;;;20.00;55.10;;;;;;5011547;28;20064;-73
2022/07/29 06:21:47;;;;;;;4.47;2.08;;;20.00;55.20;;;;;;5013853;28;20058;-72
2022/07/29 06:24:14;;;;;;;11.65;2.70;;;20.00;55.30;;;;;;5031170;28;20050;-72
2022/07/29 06:26:41;;;;;;;4.47;2.40;;;20.00;55.40;;;;;;5013879;28;20053;-72
2022/07/29 06:29:08;;;;;;;3.97;2.22;;;20.10;55.50;;;;;;5013818;28;20055;-72
2022/07/29 06:31:37;;;;;;;4.60;2.00;;;20.10;55.60;;;;;;5013507;28;20439;-73
2022/07/29 06:34:04;;;;;;;9.75;2.40;;;20.10;55.60;;;;;;5030698;28;20057;-73
2022/07/29 06:36:35;;;;;;;41.05;3.92;;;20.00;61.40;;;;;;5013491;28;20053;-73
2022/07/29 06:39:02;;;;;;;13.88;2.58;;;20.00;55.70;;;;;;5011158;28;20057;-73
2022/07/29 06:41:29;;;;;;;15.35;2.90;;;20.10;55.80;;;;;;5030851;28;20132;-73
2022/07/29 06:43:56;;;;;;;12.90;2.92;;;20.10;55.90;;;;;;5013033;28;20583;-72
2022/07/29 06:46:22;;;;;;;9.43;2.60;;;20.10;61.60;;;;;;5013102;28;20058;-72
2022/07/29 06:48:49;;;;;;;6.32;2.80;;;20.00;60.30;;;;;;5013115;28;20133;-72
2022/07/29 06:51:17;;;;;;;4.05;1.88;;;20.00;55.90;;;;;;5029182;28;20057;-73
2022/07/29 06:53:45;;;;;;;5.07;1.92;;;21.10;61.50;;;;;;5030316;28;20048;-73
2022/07/29 06:56:13;;;;;;;5.28;2.10;;;20.20;61.40;;;;;;5030013;28;20048;-73
2022/07/29 06:58:40;;;;;;;5.30;1.80;;;20.10;56.00;;;;;;5013145;28;20696;-73
2022/07/29 07:01:07;;;;;;;3.38;1.63;;;20.10;56.00;;;;;;5030584;28;20458;-73
2022/07/29 07:03:34;;;;;;;4.63;1.88;;;20.20;60.60;;;;;;5030503;28;20425;-73
2022/07/29 07:06:01;;;;;;;7.03;1.90;;;20.10;56.10;;;;;;5014763;28;20494;-73
2022/07/29 07:08:27;;;;;;;5.53;2.10;;;20.10;56.10;;;;;;5016809;28;20128;-73
2022/07/29 07:10:56;;;;;;;4.72;1.70;;;19.10;60.30;;;;;;5015092;28;20067;-72
2022/07/29 07:13:23;;;;;;;6.78;1.92;;;20.00;56.60;;;;;;5014261;28;20129;-73
2022/07/29 07:15:51;;;;;;;7.32;1.92;;;20.10;56.10;;;;;;5016197;28;20129;-72
2022/07/29 07:18:18;;;;;;;5.13;1.90;;;20.10;56.00;;;;;;5016369;28;20053;-72
2022/07/29 07:20:44;;;;;;;5.25;1.77;;;19.70;61.00;;;;;;5034023;28;20038;-74
2022/07/29 07:23:11;;;;;;;7.22;2.25;;;20.10;56.00;;;;;;5015451;28;20137;-74
2022/07/29 07:25:38;;;;;;;5.53;1.70;;;20.10;56.00;;;;;;5034306;28;20052;-74
2022/07/29 07:28:06;;;;;;;3.00;1.60;;;20.30;56.10;;;;;;5013583;28;20418;-74
2022/07/29 07:30:33;;;;;;;6.05;1.73;;;20.10;61.00;;;;;;5016748;28;20059;-76
2022/07/29 07:33:00;;;;;;;3.13;1.90;;;20.10;56.20;;;;;;5016464;28;20137;-73
2022/07/29 07:35:28;;;;;;;5.38;1.63;;;20.10;56.10;;;;;;5033799;28;20057;-73
2022/07/29 07:37:55;;;;;;;4.50;2.08;;;20.10;56.10;;;;;;5016432;28;20059;-73
2022/07/29 07:40:21;;;;;;;3.47;2.00;;;20.10;59.60;;;;;;5016426;28;20080;-73
2022/07/29 07:42:48;;;;;;;3.83;1.58;;;20.10;56.60;;;;;;5016275;28;20060;-73
2022/07/29 07:45:16;;;;;;;3.83;1.70;;;20.10;56.00;;;;;;5015965;28;20049;-73
2022/07/29 07:47:43;;;;;;;3.45;1.70;;;19.60;60.80;;;;;;5014911;28;20049;-73
2022/07/29 07:50:11;;;;;;;4.63;1.60;;;20.10;55.90;;;;;;5015772;28;20063;-72
2022/07/29 07:52:46;;;;;;;3.83;1.90;;;20.20;56.00;;;;;;5016276;28;20061;-72
2022/07/29 07:55:13;;;;;;;3.50;2.00;;;19.60;60.50;;;;;;5033825;28;20045;-72
2022/07/29 07:57:40;;;;;;;5.05;1.95;;;20.20;56.00;;;;;;5016319;28;20065;-72
2022/07/29 08:00:08;;;;;;;4.07;1.67;;;20.20;56.00;;;;;;5033165;28;20056;-73
2022/07/29 08:02:36;;;;;;;8.65;1.80;;;20.20;56.00;;;;;;5013151;28;20064;-74
2022/07/29 08:05:04;;;;;;;2.70;1.63;;;20.20;60.40;;;;;;5015027;28;20055;-73
2022/07/29 08:07:30;;;;;;;3.70;1.83;;;20.20;56.00;;;;;;5012544;28;20493;-73
2022/07/29 08:09:57;;;;;;;10.05;1.70;;;20.20;56.00;;;;;;5033019;28;20047;-73
2022/07/29 08:12:24;;;;;;;6.63;1.75;;;21.10;61.40;;;;;;5015634;28;21406;-73
2022/07/29 08:14:51;;;;;;;4.78;1.77;;;20.20;56.10;;;;;;5012304;28;20228;-72
2022/07/29 08:17:17;;;;;;;4.80;1.65;;;20.10;60.20;;;;;;5032183;28;20775;-73
2022/07/29 08:19:48;;;;;;;4.50;1.98;;;20.30;60.80;;;;;;5013833;28;20688;-71
2022/07/29 08:22:14;;;;;;;5.82;1.83;;;20.20;56.10;;;;;;5013569;28;20474;-73
2022/07/29 08:24:46;;;;;;;3.67;1.85;;;20.20;56.10;;;;;;5015258;28;20449;-71
2022/07/29 08:27:12;;;;;;;3.25;1.80;;;20.30;61.40;;;;;;5014748;28;20053;-72
2022/07/29 08:29:39;;;;;;;6.32;1.83;;;20.20;56.00;;;;;;5015638;28;20057;-72
2022/07/29 08:32:06;;;;;;;3.95;2.00;;;20.20;56.00;;;;;;5031824;28;20050;-71
2022/07/29 08:34:33;;;;;;;4.53;1.88;;;20.20;56.00;;;;;;5014274;28;20137;-72
2022/07/29 08:37:01;;;;;;;3.53;1.92;;;20.30;56.00;;;;;;5015089;28;20053;-72
2022/07/29 08:39:28;;;;;;;5.95;1.55;;;20.30;56.10;;;;;;5032712;28;20076;-72
2022/07/29 08:41:54;;;;;;;4.53;1.73;;;20.30;56.10;;;;;;5032084;28;20041;-72
2022/07/29 08:44:21;;;;;;;3.13;1.80;;;20.30;56.10;;;;;;4997231;28;20057;-71
2022/07/29 08:46:49;;;;;;;4.63;1.85;;;20.40;56.20;;;;;;5014403;28;20053;-72
2022/07/29 08:49:16;;;;;;;3.85;1.80;;;20.40;56.10;;;;;;5004360;28;20148;-72
2022/07/29 08:51:42;;;;;;;4.47;1.80;;;20.70;60.70;;;;;;4143954;28;10000983;-72
2022/07/29 08:54:11;;;;;;;5.32;2.53;;;20.50;61.20;;;;;;5031976;28;20490;-72
2022/07/29 08:56:37;;;;;;;7.82;2.10;;;20.40;56.00;;;;;;5014665;28;20057;-72
2022/07/29 08:59:05;;;;;;;4.57;1.90;;;20.40;56.00;;;;;;5014695;28;20081;-72
2022/07/29 09:01:33;;;;;;;3.80;1.77;;;20.40;56.10;;;;;;4132883;28;10000731;-72
2022/07/29 09:04:00;;;;;;;5.22;1.80;;;20.40;56.10;;;;;;4993955;28;20469;-70
2022/07/29 09:06:31;;;;;;;5.85;1.60;;;19.40;59.90;;;;;;5014103;28;20057;-71
2022/07/29 09:08:58;;;;;;;5.20;1.90;;;20.60;61.00;;;;;;5012602;28;20058;-71
2022/07/29 09:11:26;;;;;;;2.90;1.77;;;20.40;56.20;;;;;;5013936;28;20079;-72
2022/07/29 09:13:52;;;;;;;3.22;1.90;;;20.50;56.20;;;;;;5013466;28;20056;-72
2022/07/29 09:16:19;;;;;;;3.90;2.38;;;20.50;56.30;;;;;;5013457;28;20069;-72
2022/07/29 09:18:46;;;;;;;5.03;1.73;;;20.40;61.00;;;;;;5031714;28;20049;-72
2022/07/29 09:24:07;;;;;;;3.88;1.90;;;20.50;56.30;;;;;;5029069;28;20041;-72
2022/07/29 09:26:36;;;;;;;5.18;1.90;;;20.50;56.40;;;;;;5010035;28;20053;-72
2022/07/29 09:29:09;;;;;;;3.88;1.70;;;20.50;61.10;;;;;;5013184;28;20140;-73
2022/07/29 09:31:37;;;;;;;5.10;1.55;;;20.50;56.40;;;;;;5012064;28;20057;-72
2022/07/29 09:34:04;;;;;;;5.78;1.70;;;20.00;61.90;;;;;;5013869;28;20061;-72
2022/07/29 09:36:30;;;;;;;3.08;1.60;;;20.40;61.20;;;;;;5010738;28;20059;-72
2022/07/29 09:39:00;;;;;;;2.45;1.45;;;20.50;56.50;;;;;;5029857;28;20056;-71
2022/07/29 09:41:27;;;;;;;2.97;1.70;;;20.50;56.50;;;;;;5010244;28;20064;-72
2022/07/29 09:43:56;;;;;;;6.22;1.75;;;20.50;56.40;;;;;;4139343;28;10000565;-72
2022/07/29 09:46:23;;;;;;;5.20;1.65;;;20.60;61.60;;;;;;5013686;28;20046;-72
2022/07/29 09:49:08;;;;;;;3.75;1.70;;;20.60;56.50;;;;;;5013694;28;20053;-73
2022/07/29 09:51:35;;;;;;;;;;;20.60;56.40;;;;;;5012185;28;20053;-73
2022/07/29 09:54:03;;;;;;;4.53;1.67;;;20.60;56.30;;;;;;5012933;28;19924;-72
2022/07/29 09:56:40;;;;;;;4.55;1.70;;;20.50;56.40;;;;;;5013885;28;20052;-72
2022/07/29 09:59:10;;;;;;;3.45;1.80;;;20.60;56.40;;;;;;5013635;28;20072;-72
2022/07/29 10:01:37;;;;;;;2.03;1.52;;;20.70;61.70;;;;;;5013902;28;20073;-72
2022/07/29 10:04:04;;;;;;;2.88;1.45;;;20.60;56.40;;;;;;5013010;28;20061;-73
2022/07/29 10:06:31;;;;;;;2.72;1.42;;;20.60;56.30;;;;;;5012771;28;20050;-72
2022/07/29 10:09:08;;;;;;;4.63;1.63;;;20.60;56.30;;;;;;5012848;28;20482;-72
2022/07/29 10:11:35;;;;;;;4.47;1.85;;;20.70;56.20;;;;;;5023244;28;20080;-72
2022/07/29 10:14:02;;;;;;;3.17;1.75;;;21.00;61.50;;;;;;5013633;28;20068;-71
2022/07/29 10:16:33;;;;;;;4.18;1.75;;;20.70;56.20;;;;;;5013605;28;20405;-71
2022/07/29 10:19:00;;;;;;;4.88;1.58;;;21.60;61.00;;;;;;5013011;28;20049;-71
2022/07/29 10:21:27;;;;;;;4.78;1.70;;;20.90;60.30;;;;;;5012230;28;20116;-71
2022/07/29 10:23:54;;;;;;;3.25;1.67;;;19.40;60.70;;;;;;5011998;28;20049;-71
2022/07/29 10:26:21;;;;;;;3.80;1.60;;;20.80;56.20;;;;;;5012291;28;20692;-72
2022/07/29 10:28:47;;;;;;;4.88;1.50;;;20.90;56.20;;;;;;5030898;28;20103;-72
2022/07/29 10:31:16;;;;;;;3.22;1.60;;;21.70;61.80;;;;;;5013566;28;20124;-72
2022/07/29 10:33:49;;;;;;;1.90;1.60;;;20.90;56.00;;;;;;5013409;28;20417;-72
2022/07/29 10:36:38;;;;;;;4.90;1.80;;;21.00;56.00;;;;;;5030829;28;20046;-72
2022/07/29 10:39:08;;;;;;;3.13;1.63;;;21.00;56.00;;;;;;5013222;28;20129;-73
2022/07/29 10:41:42;;;;;;;4.72;2.30;;;21.00;56.00;;;;;;5013687;28;20060;-72
2022/07/29 10:44:10;;;;;;;3.95;1.60;;;21.00;56.10;;;;;;5017046;28;20148;-72
2022/07/29 10:46:37;;;;;;;2.25;1.42;;;21.00;60.70;;;;;;5016264;28;20128;-72
2022/07/29 10:49:12;;;;;;;3.30;1.70;;;21.30;60.70;;;;;;5034460;28;20049;-72
2022/07/29 10:51:56;;;;;;;5.63;1.63;;;21.10;55.90;;;;;;5016541;28;20053;-72
2022/07/29 10:54:41;;;;;;;8.77;1.60;;;21.10;61.00;;;;;;5014543;28;20057;-72
2022/07/29 10:57:15;;;;;;;2.45;1.48;;;21.20;55.90;;;;;;5017077;28;20057;-72
2022/07/29 10:59:43;;;;;;;2.55;1.50;;;21.20;55.80;;;;;;5034540;28;20482;-72
2022/07/29 11:02:50;;;;;;;3.97;1.50;;;21.20;55.80;;;;;;5017138;28;20703;-72
2022/07/29 11:05:20;;;;;;;3.47;1.50;;;21.10;60.90;;;;;;5016776;28;20046;-72
2022/07/29 11:08:25;;;;;;;3.20;1.60;;;20.60;60.40;;;;;;4998286;28;20083;-72
2022/07/29 11:10:53;;;;;;;3.22;1.55;;;21.30;55.80;;;;;;5014831;28;20628;-72
2022/07/29 11:13:51;;;;;;;2.88;1.50;;;21.20;61.00;;;;;;5015453;28;20490;-72
2022/07/29 11:16:21;;;;;;;3.10;1.58;;;21.30;55.80;;;;;;5031669;28;20053;-72
2022/07/29 11:19:19;;;;;;;2.70;1.77;;;21.30;56.00;;;;;;5014102;28;20526;-72
2022/07/29 11:21:49;;;;;;;2.60;1.50;;;21.30;56.10;;;;;;5015227;28;20137;-72
2022/07/29 11:24:17;;;;;;;3.42;1.50;;;21.80;61.40;;;;;;5016313;28;20532;-72
2022/07/29 11:26:43;;;;;;;3.05;1.60;;;22.10;60.80;;;;;;5015427;28;20049;-72
2022/07/29 11:29:19;;;;;;;1.70;1.33;;;21.30;56.30;;;;;;5016803;28;20063;-71
2022/07/29 11:31:48;;;;;;;2.88;1.40;;;21.30;60.60;;;;;;5016072;28;20502;-71
2022/07/29 11:34:19;;;;;;;3.45;1.50;;;21.30;56.30;;;;;;5016125;28;20053;-71
2022/07/29 11:37:24;;;;;;;3.38;1.60;;;21.30;56.30;;;;;;5016391;28;20056;-71
2022/07/29 11:40:12;;;;;;;3.38;1.50;;;21.40;61.70;;;;;;5031852;28;20048;-72
2022/07/29 11:42:43;;;;;;;5.57;1.80;;;21.30;56.50;;;;;;5015321;28;20089;-72
2022/07/29 11:45:13;;;;;;;2.55;1.60;;;20.40;60.00;;;;;;5009903;28;20395;-72
2022/07/29 11:47:40;;;;;;;4.65;1.70;;;21.30;56.40;;;;;;5014873;28;20053;-73
2022/07/29 11:50:09;;;;;;;3.00;1.63;;;21.30;56.40;;;;;;5012781;28;20413;-73
2022/07/29 11:52:42;;;;;;;4.43;1.70;;;21.30;56.40;;;;;;5015006;28;20494;-73
2022/07/29 11:55:10;;;;;;;3.08;1.60;;;21.20;56.30;;;;;;5013204;28;20045;-73
2022/07/29 11:57:37;;;;;;;3.50;1.60;;;21.50;56.50;;;;;;5015802;28;20053;-73
2022/07/29 12:00:05;;;;;;;3.55;1.60;;;21.30;56.40;;;;;;5014991;28;20061;-73
2022/07/29 12:02:42;;;;;;;3.65;1.65;;;21.30;56.40;;;;;;5015368;28;20445;-73
2022/07/29 12:05:10;;;;;;;3.55;1.40;;;21.30;56.40;;;;;;5015647;28;20521;-73
2022/07/29 12:07:39;;;;;;;4.00;1.85;;;21.20;60.70;;;;;;5015806;28;20062;-73
2022/07/29 12:10:06;;;;;;;2.65;1.45;;;21.20;56.30;;;;;;5015551;28;20164;-73
2022/07/29 12:12:33;;;;;;;6.95;1.58;;;21.10;60.70;;;;;;5015115;28;20099;-73
2022/07/29 12:15:11;;;;;;;3.20;1.60;;;21.40;56.40;;;;;;5014796;28;20054;-73
2022/07/29 12:17:38;;;;;;;3.35;1.50;;;21.30;56.20;;;;;;5029324;28;20132;-73
2022/07/29 12:20:06;;;;;;;2.00;1.30;;;20.10;59.70;;;;;;5014911;28;20056;-73
2022/07/29 12:22:36;;;;;;;4.10;1.50;;;21.30;60.40;;;;;;5014618;28;20061;-73
2022/07/29 12:25:06;;;;;;;5.35;1.40;;;21.30;56.20;;;;;;5014450;28;20061;-73
2022/07/29 12:27:33;;;;;;;2.17;1.50;;;21.20;61.40;;;;;;5015043;28;20118;-73
2022/07/29 12:30:02;;;;;;;4.57;1.73;;;21.30;56.40;;;;;;5012938;28;20384;-73
2022/07/29 12:32:33;;;;;;;5.32;1.70;;;21.30;56.40;;;;;;5015073;28;20057;-73
2022/07/29 12:35:00;;;;;;;3.50;1.20;;;21.60;60.50;;;;;;5032096;28;20387;-73
2022/07/29 12:37:27;;;;;;;6.25;1.88;;;21.30;56.30;;;;;;5032521;28;20049;-74
2022/07/29 12:39:54;;;;;;;2.20;1.30;;;21.30;56.50;;;;;;5014439;28;20049;-73
2022/07/29 12:42:22;;;;;;;2.28;1.50;;;21.30;56.40;;;;;;5032639;28;20052;-73
2022/07/29 12:44:50;;;;;;;5.10;1.45;;;21.30;56.70;;;;;;5014705;28;20132;-72
2022/07/29 12:47:17;;;;;;;1.80;1.50;;;21.10;61.00;;;;;;5031948;28;20104;-73
2022/07/29 12:49:44;;;;;;;4.57;1.77;;;21.20;60.80;;;;;;5012662;28;20147;-73
2022/07/29 12:52:28;;;;;;;2.75;1.50;;;21.30;61.40;;;;;;5013338;28;20057;-73
2022/07/29 12:54:54;;;;;;;2.25;1.40;;;19.90;61.40;;;;;;5030901;28;20053;-72
2022/07/29 12:57:23;;;;;;;3.55;1.58;;;21.20;56.90;;;;;;5014307;28;20049;-72
2022/07/29 13:00:14;;;;;;;3.47;1.48;;;20.40;61.00;;;;;;5032067;28;20052;-72